Time;durP1;ratioP1;P1;durP2;ratioP2;P2;SDS_P1;SDS_P2;PMS_P1;PMS_P2;Temp;Humidity;BMP_temperature;BMP_pressure;BME280_temperature;BME280_humidity;BME280_pressure;Samples;Min_cycle;Max_cycle;Signal;HPM_P1;HPM_P2
2023/09/11 00:04:28;;;;;;;11.45;7.40;;;;;;;24.23;61.71;100089.47;10347695;28;20855;-66
2023/09/11 00:09:29;;;;;;;10.45;8.30;;;;;;;24.19;62.33;100088.22;10324632;28;20136;-65
2023/09/11 00:14:31;;;;;;;9.38;8.35;;;;;;;24.11;62.51;100083.03;10343325;28;20744;-65
2023/09/11 00:19:32;;;;;;;10.45;8.02;;;;;;;23.99;62.59;100061.16;10342569;28;20507;-65
2023/09/11 00:24:33;;;;;;;14.63;8.30;;;;;;;23.97;62.70;100074.94;10344915;28;20155;-65
2023/09/11 00:29:35;;;;;;;11.02;8.05;;;;;;;24.00;62.52;100071.81;10342695;28;20144;-65
2023/09/11 00:34:37;;;;;;;10.63;8.23;;;;;;;23.97;62.82;100074.09;10342451;28;20050;-65
2023/09/11 00:39:39;;;;;;;11.38;7.57;;;;;;;23.89;63.26;100069.75;10342085;28;20411;-64
2023/09/11 00:44:40;;;;;;;8.77;7.60;;;;;;;23.76;63.41;100040.69;10341777;28;20057;-65
2023/09/11 00:49:42;;;;;;;12.48;7.93;;;;;;;23.72;63.33;100046.78;10342517;28;20050;-64
2023/09/11 00:54:43;;;;;;;10.48;7.60;;;;;;;23.72;63.23;100060.38;10352674;28;20045;-66
2023/09/11 00:59:48;;;;;;;9.20;7.32;;;;;;;23.67;63.76;100063.72;10346763;28;20060;-65
2023/09/11 01:04:50;;;;;;;13.15;8.40;;;;;;;23.58;64.37;100041.41;10348614;28;20054;-65
2023/09/11 01:09:51;;;;;;;10.48;7.53;;;;;;;23.58;64.54;100043.28;10340776;28;20062;-63
2023/09/11 01:14:53;;;;;;;10.07;8.35;;;;;;;23.57;64.57;100045.19;10333648;28;20173;-65
2023/09/11 01:20:45;;;;;;;10.05;8.43;;;;;;;23.47;64.56;100033.94;10348849;28;20053;-64
2023/09/11 01:26:06;;;;;;;11.73;8.67;;;;;;;23.46;64.91;100045.84;10310560;28;20140;-63
2023/09/11 01:31:09;;;;;;;10.32;8.45;;;;;;;23.45;64.98;100044.19;10322179;28;20124;-64
2023/09/11 01:36:11;;;;;;;12.75;8.52;;;;;;;23.43;64.91;100047.09;10307859;28;20409;-65
2023/09/11 01:41:14;;;;;;;11.40;8.52;;;;;;;23.36;64.96;100035.44;10305571;28;20070;-65
2023/09/11 01:46:17;;;;;;;13.23;8.60;;;;;;;23.32;65.24;100027.91;10307784;28;20146;-65
2023/09/11 01:51:19;;;;;;;;;;;;;;;23.28;65.71;100036.50;10308156;28;20557;-64
2023/09/11 01:56:21;;;;;;;11.70;8.13;;;;;;;23.11;65.47;100027.13;10306698;28;19929;-65
2023/09/11 02:01:22;;;;;;;11.35;8.80;;;;;;;23.17;65.59;100042.56;10308682;28;20671;-65
2023/09/11 02:06:24;;;;;;;10.55;8.13;;;;;;;23.02;65.62;100039.22;10305745;28;20557;-66
2023/09/11 02:11:25;;;;;;;10.40;7.20;;;;;;;22.80;66.46;100014.19;10302878;28;20053;-66
2023/09/11 02:16:27;;;;;;;9.05;6.80;;;;;;;22.88;66.41;100032.94;10303693;28;20049;-63
2023/09/11 02:21:28;;;;;;;10.48;7.60;;;;;;;22.88;66.35;100031.09;10309755;28;20054;-64
2023/09/11 02:26:30;;;;;;;11.85;8.30;;;;;;;22.89;66.20;100035.44;10306483;28;20062;-65
2023/09/11 02:31:31;;;;;;;10.45;8.43;;;;;;;22.86;66.08;100038.59;10301642;28;20162;-65
2023/09/11 02:36:32;;;;;;;11.15;8.05;;;;;;;22.82;66.68;100044.63;10304553;28;20061;-66
2023/09/11 02:41:34;;;;;;;14.25;8.50;;;;;;;22.76;66.97;100030.06;10306736;28;20049;-65
2023/09/11 02:46:35;;;;;;;9.43;7.80;;;;;;;22.69;67.07;100035.47;10304369;28;20057;-65
2023/09/11 02:51:37;;;;;;;9.55;8.32;;;;;;;22.60;67.48;100042.97;10305089;28;20061;-65
2023/09/11 02:56:38;;;;;;;14.02;7.97;;;;;;;22.49;67.51;100040.88;10303447;28;20042;-66
2023/09/11 03:01:40;;;;;;;11.75;8.25;;;;;;;22.45;68.29;100027.94;10311202;28;20160;-66
2023/09/11 03:06:41;;;;;;;12.93;7.50;;;;;;;22.29;68.55;100012.88;10302113;28;20061;-65
2023/09/11 03:11:43;;;;;;;11.13;7.90;;;;;;;22.27;68.69;100014.97;10306378;28;20061;-66
2023/09/11 03:16:44;;;;;;;11.82;7.57;;;;;;;22.25;68.94;100023.31;10305286;28;20619;-67
2023/09/11 03:21:46;;;;;;;10.80;6.65;;;;;;;22.17;69.25;100015.34;10303369;28;20101;-66
2023/09/11 03:26:47;;;;;;;8.60;6.70;;;;;;;22.07;69.34;100004.91;10305603;28;20050;-66
2023/09/11 03:31:48;;;;;;;9.85;7.63;;;;;;;22.14;69.67;100019.28;10307167;28;20046;-64
2023/09/11 03:36:50;;;;;;;12.23;7.88;;;;;;;22.15;69.30;100010.13;10305806;28;20050;-65
2023/09/11 03:41:51;;;;;;;10.88;7.57;;;;;;;22.12;69.65;100007.00;10304125;28;20057;-64
2023/09/11 03:46:53;;;;;;;8.13;6.93;;;;;;;22.03;69.73;99996.34;10303636;28;20123;-64
2023/09/11 03:51:54;;;;;;;10.15;8.18;;;;;;;21.99;69.99;100008.66;10306615;28;20199;-65
2023/09/11 03:56:55;;;;;;;10.07;7.68;;;;;;;21.92;70.45;100009.66;10311231;28;20053;-67
2023/09/11 04:01:57;;;;;;;10.15;6.97;;;;;;;21.79;70.63;99997.75;10300663;28;20086;-66
2023/09/11 04:06:58;;;;;;;9.50;7.55;;;;;;;21.88;70.60;100001.09;10296980;28;20046;-65
2023/09/11 04:12:01;;;;;;;9.90;6.78;;;;;;;21.87;70.32;99994.88;10340137;28;20107;-66
2023/09/11 04:17:02;;;;;;;9.67;7.13;;;;;;;21.75;70.79;99980.22;10336897;28;20048;-64
2023/09/11 04:22:05;;;;;;;10.02;8.05;;;;;;;21.85;70.64;99996.91;10341297;28;20084;-66
2023/09/11 04:27:06;;;;;;;12.20;8.77;;;;;;;21.85;71.00;99990.69;10345638;28;20076;-65
2023/09/11 04:32:09;;;;;;;10.50;8.02;;;;;;;21.74;70.89;99988.53;10348890;28;20085;-65
2023/09/11 04:37:10;;;;;;;10.83;8.00;;;;;;;21.77;71.12;99996.25;10348186;28;20184;-63
2023/09/11 04:42:12;;;;;;;13.00;8.45;;;;;;;21.76;71.43;100017.13;10348139;28;20700;-64
2023/09/11 04:47:13;;;;;;;10.35;8.43;;;;;;;21.73;71.29;100006.69;10351737;28;20049;-65
2023/09/11 04:52:15;;;;;;;12.02;8.43;;;;;;;21.69;71.56;100000.00;10349316;28;20563;-63
2023/09/11 04:57:17;;;;;;;9.73;7.53;;;;;;;21.64;71.61;99997.06;10348857;28;20049;-66
2023/09/11 05:02:18;;;;;;;9.02;7.93;;;;;;;21.56;71.84;99997.22;10333944;28;20060;-64
2023/09/11 05:07:19;;;;;;;12.85;8.50;;;;;;;21.61;72.25;100011.03;10334962;28;20107;-65
2023/09/11 05:12:21;;;;;;;9.75;6.85;;;;;;;21.57;72.57;100015.97;10344468;28;20637;-67
2023/09/11 05:17:22;;;;;;;13.27;7.47;;;;;;;21.61;72.59;100028.09;10339240;28;20057;-70
2023/09/11 05:22:25;;;;;;;10.18;6.45;;;;;;;21.60;72.85;100039.13;10338299;28;20750;-67
2023/09/11 05:27:28;;;;;;;10.57;7.18;;;;;;;21.61;73.03;100035.38;10341080;28;20057;-65
2023/09/11 05:32:32;;;;;;;;;;;;;;;21.60;73.31;100031.81;10326966;28;20060;-65
2023/09/11 05:37:34;;;;;;;12.63;8.45;;;;;;;21.52;73.45;100022.00;10341229;28;20129;-67
2023/09/11 05:42:35;;;;;;;11.90;7.68;;;;;;;21.51;73.70;100020.34;10339154;28;20060;-68
2023/09/11 05:47:38;;;;;;;13.45;8.80;;;;;;;21.41;73.45;100027.97;10339535;28;21748;-67
2023/09/11 05:52:40;;;;;;;12.10;8.52;;;;;;;21.32;75.05;100029.19;10338046;28;20366;-64
2023/09/11 05:57:41;;;;;;;10.98;8.63;;;;;;;21.16;74.53;100004.06;10324218;28;20149;-65
2023/09/11 06:02:46;;;;;;;13.57;7.82;;;;;;;21.33;74.13;100025.41;10339038;28;20355;-66
2023/09/11 06:07:47;;;;;;;10.35;7.35;;;;;;;21.39;74.61;100021.91;10338589;28;20148;-66
2023/09/11 06:12:49;;;;;;;9.73;7.47;;;;;;;21.49;73.73;100043.22;10327255;28;20103;-67
2023/09/11 06:17:50;;;;;;;12.50;7.38;;;;;;;21.45;73.68;100041.94;10340550;28;20045;-66
2023/09/11 06:22:52;;;;;;;13.10;7.65;;;;;;;21.56;72.68;100043.25;10335426;28;20049;-65
2023/09/11 06:27:55;;;;;;;9.50;7.53;;;;;;;21.61;73.06;100043.50;10330215;28;20057;-66
2023/09/11 06:32:56;;;;;;;13.33;7.97;;;;;;;21.71;71.21;100035.84;10319350;28;20337;-65
2023/09/11 06:37:58;;;;;;;10.43;7.15;;;;;;;21.80;71.56;100031.94;10337036;28;20058;-65
2023/09/11 06:42:59;;;;;;;12.80;7.95;;;;;;;21.67;71.03;99996.66;10335467;28;21210;-66
2023/09/11 06:48:01;;;;;;;11.40;7.60;;;;;;;21.98;70.99;100035.94;10339546;28;20503;-64
2023/09/11 06:53:03;;;;;;;11.15;7.57;;;;;;;22.27;70.04;100047.50;10340661;28;20351;-66
2023/09/11 06:58:04;;;;;;;10.90;8.52;;;;;;;22.40;69.29;100048.38;10339766;28;20057;-66
2023/09/11 07:03:06;;;;;;;11.40;8.27;;;;;;;22.47;68.73;100048.38;10335836;28;20691;-65
2023/09/11 07:08:08;;;;;;;12.10;6.95;;;;;;;22.49;68.67;100037.31;10324572;28;20819;-66
2023/09/11 07:13:10;;;;;;;13.82;7.97;;;;;;;22.62;68.92;100044.66;10341545;28;20053;-66
2023/09/11 07:24:58;;;;;;;9.25;7.47;;;;;;;23.02;67.81;100044.66;10340191;28;20516;-66
2023/09/11 07:30:03;;;;;;;9.63;6.75;;;;;;;23.07;67.54;100040.22;10337110;28;20046;-67
2023/09/11 07:35:05;;;;;;;9.82;7.32;;;;;;;23.30;66.58;100047.97;10340992;28;20061;-68
2023/09/11 07:40:08;;;;;;;14.55;7.90;;;;;;;23.38;66.04;100043.38;10337126;28;20129;-64
2023/09/11 07:45:10;;;;;;;12.43;6.53;;;;;;;23.41;64.83;100045.66;10324229;28;20049;-63
2023/09/11 07:50:11;;;;;;;16.63;7.90;;;;;;;23.40;64.21;100043.97;10336261;28;20512;-63
2023/09/11 07:55:15;;;;;;;11.30;6.22;;;;;;;23.42;65.12;100045.44;10339799;28;20208;-64
2023/09/11 08:00:21;;;;;;;11.95;5.93;;;;;;;23.54;64.80;100042.03;10296766;28;20862;-64
2023/09/11 08:05:22;;;;;;;9.90;5.60;;;;;;;23.79;63.97;100053.03;10305036;28;21500;-63
2023/09/11 08:10:26;;;;;;;11.90;7.25;;;;;;;23.89;63.30;100048.00;10308284;28;20065;-67
2023/09/11 08:15:29;;;;;;;9.30;5.97;;;;;;;23.91;63.93;100036.91;10307782;28;20050;-66
2023/09/11 08:20:31;;;;;;;14.32;7.00;;;;;;;24.15;62.69;100043.47;10306465;28;20360;-66
2023/09/11 08:25:33;;;;;;;9.48;5.40;;;;;;;24.34;62.92;100031.66;10309134;28;20050;-66
2023/09/11 08:30:35;;;;;;;7.53;5.70;;;;;;;24.61;61.07;100028.75;10307410;28;20050;-66
2023/09/11 08:35:40;;;;;;;9.85;6.47;;;;;;;24.75;60.38;100021.31;10303806;28;20046;-65
2023/09/11 08:40:42;;;;;;;9.10;5.90;;;;;;;25.09;59.11;100037.38;10301907;28;20479;-66
2023/09/11 08:45:43;;;;;;;11.93;6.30;;;;;;;25.26;57.81;100032.97;10305586;28;20066;-64
2023/09/11 08:50:53;;;;;;;10.52;5.88;;;;;;;25.50;57.64;100033.19;10305135;28;20140;-65
2023/09/11 08:55:56;;;;;;;8.50;6.20;;;;;;;25.69;56.24;100034.84;10302350;28;20060;-64
2023/09/11 09:00:59;;;;;;;12.38;5.90;;;;;;;25.87;55.73;100014.06;10306442;28;20046;-64
2023/09/11 09:06:03;;;;;;;9.20;6.55;;;;;;;26.10;53.57;100021.53;10317416;28;20078;-65
2023/09/11 09:11:04;;;;;;;9.88;6.57;;;;;;;26.17;52.24;100021.44;10304396;28;20058;-64
2023/09/11 09:16:06;;;;;;;7.85;6.35;;;;;;;26.39;52.98;100025.31;10302003;28;20076;-63
2023/09/11 09:21:07;;;;;;;9.55;6.47;;;;;;;26.56;51.29;100024.63;10302257;28;20050;-64
2023/09/11 09:26:10;;;;;;;9.77;6.15;;;;;;;26.70;51.96;100008.88;10306346;28;20362;-65
2023/09/11 09:31:20;;;;;;;;;;;;;;;27.03;51.06;100015.66;10308743;28;20049;-64
2023/09/11 09:36:22;;;;;;;8.90;6.05;;;;;;;27.16;50.90;99990.84;10306989;28;19929;-65
2023/09/11 09:41:24;;;;;;;10.07;5.93;;;;;;;27.56;49.74;100016.56;10300672;28;20505;-64
2023/09/11 09:46:26;;;;;;;12.32;6.05;;;;;;;27.73;48.48;99992.84;10302059;28;20054;-64
2023/09/11 09:51:28;;;;;;;7.70;5.73;;;;;;;28.02;48.33;99988.22;10320629;28;20406;-64
2023/09/11 09:56:30;;;;;;;9.60;5.35;;;;;;;28.29;47.59;99997.75;10296403;28;20061;-64
2023/09/11 10:01:43;;;;;;;9.63;5.50;;;;;;;28.46;45.39;99987.63;10296328;28;20500;-64
2023/09/11 10:06:53;;;;;;;6.80;5.68;;;;;;;28.74;44.86;100002.34;10295238;28;20050;-64
2023/09/11 10:11:55;;;;;;;7.47;5.30;;;;;;;29.03;44.96;99974.81;10297650;28;20049;-64
2023/09/11 10:16:59;;;;;;;8.63;5.63;;;;;;;29.42;44.33;99966.56;10299233;28;20081;-64
2023/09/11 10:22:00;;;;;;;10.43;5.10;;;;;;;29.59;44.59;99967.34;10297005;28;20054;-64
2023/09/11 10:27:03;;;;;;;6.23;5.43;;;;;;;29.74;44.44;99958.47;10297487;28;20587;-65
2023/09/11 10:32:09;;;;;;;7.03;5.15;;;;;;;30.09;42.82;99959.91;10294788;28;20050;-66
2023/09/11 10:37:10;;;;;;;6.40;5.22;;;;;;;30.38;43.11;99961.53;10296807;28;20065;-64
2023/09/11 10:42:12;;;;;;;8.45;5.07;;;;;;;30.51;42.84;99944.66;10332299;28;20052;-65
2023/09/11 10:47:15;;;;;;;10.40;5.80;;;;;;;30.79;43.05;99942.63;10330807;28;20188;-65
2023/09/11 10:52:17;;;;;;;10.10;4.70;;;;;;;31.07;42.31;99941.44;10333637;28;20049;-64
2023/09/11 10:57:19;;;;;;;7.50;5.47;;;;;;;31.42;41.67;99947.34;10328972;28;20049;-66
2023/09/11 11:02:21;;;;;;;;;;;;;;;31.68;38.47;99935.38;10330073;28;20126;-64
2023/09/11 11:07:23;;;;;;;12.98;5.60;;;;;;;31.98;39.99;99939.28;10329400;28;20324;-64
2023/09/11 11:12:33;;;;;;;12.77;5.43;;;;;;;32.26;39.12;99920.56;10291246;28;20054;-63
2023/09/11 11:17:38;;;;;;;9.38;5.70;;;;;;;32.47;38.81;99895.78;10292745;28;20049;-63
2023/09/11 11:22:41;;;;;;;10.43;5.70;;;;;;;33.05;36.69;99909.16;10292033;28;20099;-65
2023/09/11 11:27:44;;;;;;;9.98;6.28;;;;;;;33.23;37.55;99891.19;10293712;28;20060;-64
2023/09/11 11:32:48;;;;;;;11.50;5.95;;;;;;;33.62;36.50;99888.44;10293222;28;20631;-66
2023/09/11 11:37:52;;;;;;;9.48;5.20;;;;;;;33.78;36.56;99897.50;10292814;28;20743;-68
2023/09/11 11:42:55;;;;;;;11.40;4.80;;;;;;;33.88;35.27;99890.25;10292902;28;20065;-64
2023/09/11 11:47:56;;;;;;;11.18;4.82;;;;;;;34.24;34.19;99888.00;10290571;28;20165;-65
2023/09/11 11:52:58;;;;;;;14.63;5.40;;;;;;;34.66;32.26;99899.47;10294537;28;20053;-65
2023/09/11 11:57:59;;;;;;;10.85;5.95;;;;;;;35.05;33.23;99887.44;10294104;28;20065;-64
2023/09/11 12:03:05;;;;;;;16.73;6.72;;;;;;;35.50;31.94;99896.25;10288268;28;20084;-63
2023/09/11 12:08:11;;;;;;;12.20;5.65;;;;;;;35.98;31.45;99894.47;10286175;28;20845;-64
2023/09/11 12:13:13;;;;;;;14.07;6.07;;;;;;;36.18;31.44;99874.72;10287063;28;20054;-65
2023/09/11 12:18:15;;;;;;;9.45;4.88;;;;;;;36.71;30.35;99892.88;10290947;28;20762;-64
2023/09/11 12:23:16;;;;;;;13.00;5.70;;;;;;;37.30;29.31;99883.94;10289371;28;20054;-65
2023/09/11 12:28:20;;;;;;;11.52;4.60;;;;;;;37.77;28.25;99883.72;10288931;28;20057;-65
2023/09/11 12:33:27;;;;;;;17.80;5.18;;;;;;;38.46;26.62;99874.19;10286622;28;20047;-65
2023/09/11 12:38:29;;;;;;;14.63;5.05;;;;;;;38.81;25.76;99858.50;10289623;28;20540;-65
2023/09/11 12:43:31;;;;;;;10.32;5.10;;;;;;;38.53;27.16;99858.69;10289343;28;20058;-66
2023/09/11 12:48:32;;;;;;;11.90;4.60;;;;;;;38.28;26.93;99864.94;10303825;28;20223;-66
2023/09/11 12:53:35;;;;;;;12.13;4.82;;;;;;;39.34;26.44;99867.75;10302504;28;20151;-65
2023/09/11 12:58:40;;;;;;;11.05;4.65;;;;;;;40.20;23.92;99856.09;10303461;28;21604;-64
2023/09/11 13:03:46;;;;;;;10.68;4.38;;;;;;;39.06;25.63;99847.72;10317263;28;20045;-66
2023/09/11 13:08:48;;;;;;;17.17;5.05;;;;;;;37.69;28.03;99846.41;10302300;28;20054;-65
2023/09/11 13:13:49;;;;;;;13.55;5.45;;;;;;;37.12;28.74;99828.25;10302371;28;20077;-65
2023/09/11 13:19:11;;;;;;;11.75;5.28;;;;;;;36.62;28.97;99842.88;10302445;28;20166;-65
2023/09/11 13:24:13;;;;;;;11.65;4.95;;;;;;;36.19;29.93;99823.72;10299402;28;20092;-64
2023/09/11 13:29:14;;;;;;;11.85;4.63;;;;;;;36.00;29.09;99815.50;10302715;28;20050;-64
2023/09/11 13:34:16;;;;;;;9.68;4.10;;;;;;;35.88;29.79;99813.22;10299693;28;20785;-64
2023/09/11 13:39:17;;;;;;;11.40;5.30;;;;;;;35.62;29.82;99807.25;10295736;28;20113;-64
2023/09/11 13:44:19;;;;;;;9.38;4.32;;;;;;;35.25;30.75;99799.78;10295448;28;20136;-65
2023/09/11 13:49:21;;;;;;;11.18;4.50;;;;;;;35.10;31.24;99796.13;10302642;28;20512;-64
2023/09/11 13:54:22;;;;;;;11.05;4.68;;;;;;;34.98;30.64;99795.72;10301234;28;20050;-63
2023/09/11 13:59:24;;;;;;;12.05;4.28;;;;;;;34.74;31.27;99796.59;10306885;28;20073;-62
2023/09/11 14:04:25;;;;;;;15.93;4.85;;;;;;;34.44;31.79;99782.03;10300210;28;20054;-63
2023/09/11 14:09:27;;;;;;;13.93;4.82;;;;;;;34.23;31.44;99781.41;10298505;28;20069;-64
2023/09/11 14:14:29;;;;;;;13.57;4.70;;;;;;;33.95;31.90;99783.09;10298882;28;20065;-63
2023/09/11 14:19:30;;;;;;;10.05;4.20;;;;;;;33.73;32.02;99789.88;10300921;28;20085;-63
2023/09/11 14:24:33;;;;;;;17.73;4.72;;;;;;;33.32;32.09;99784.69;10301908;28;20500;-63
2023/09/11 14:29:34;;;;;;;13.23;4.95;;;;;;;33.11;32.24;99773.75;10301028;28;20211;-64
2023/09/11 14:34:36;;;;;;;;;;;;;;;32.91;32.86;99779.41;10299509;28;20050;-62
2023/09/11 14:39:37;;;;;;;9.30;3.92;;;;;;;32.53;32.65;99746.75;10299972;28;19925;-65
2023/09/11 14:44:39;;;;;;;11.85;4.05;;;;;;;32.36;33.31;99751.78;10291644;28;20548;-63
2023/09/11 14:49:41;;;;;;;9.70;4.38;;;;;;;32.36;33.49;99780.13;10297272;28;20105;-63
2023/09/11 14:54:42;;;;;;;12.98;5.47;;;;;;;32.23;33.52;99772.44;10296177;28;20540;-64
2023/09/11 14:59:54;;;;;;;14.95;5.45;;;;;;;31.98;33.88;99773.28;10297795;28;20126;-64
2023/09/11 15:04:57;;;;;;;10.07;3.97;;;;;;;31.77;34.70;99767.84;10295114;28;20280;-63
2023/09/11 15:09:59;;;;;;;12.45;4.28;;;;;;;31.71;34.54;99763.44;10294541;28;20436;-64
2023/09/11 15:15:00;;;;;;;9.27;5.32;;;;;;;31.59;34.79;99762.88;10298672;28;20093;-64
2023/09/11 15:20:02;;;;;;;11.15;5.18;;;;;;;31.45;35.28;99744.16;10294968;28;20049;-63
2023/09/11 15:25:04;;;;;;;11.50;4.75;;;;;;;31.42;35.21;99760.38;10295704;28;20072;-64
2023/09/11 15:30:06;;;;;;;;;;;;;;;31.28;35.17;99749.91;10297091;28;20719;-63
2023/09/11 15:35:08;;;;;;;11.75;5.05;;;;;;;31.15;35.35;99739.44;10294613;28;19937;-63
2023/09/11 15:40:09;;;;;;;13.88;4.43;;;;;;;31.00;35.45;99748.50;10296691;28;20966;-64
2023/09/11 15:45:11;;;;;;;11.05;5.85;;;;;;;30.82;35.69;99731.41;10290682;28;20056;-63
2023/09/11 15:50:12;;;;;;;11.68;5.25;;;;;;;30.74;35.71;99740.16;10294248;28;20054;-65
2023/09/11 15:55:14;;;;;;;13.95;5.00;;;;;;;30.61;36.44;99741.50;10294728;28;20050;-64
2023/09/11 16:00:16;;;;;;;12.80;4.82;;;;;;;30.53;36.91;99744.75;10296041;28;20713;-64
2023/09/11 16:05:17;;;;;;;11.55;4.85;;;;;;;30.45;36.98;99742.53;10292991;28;20058;-63
2023/09/11 16:10:19;;;;;;;11.43;4.68;;;;;;;30.33;36.91;99729.81;10293488;28;20271;-62
2023/09/11 16:15:21;;;;;;;10.50;4.00;;;;;;;30.28;36.98;99745.41;10293866;28;20079;-63
2023/09/11 16:20:26;;;;;;;12.27;5.32;;;;;;;30.22;36.67;99739.09;10297861;28;20533;-65
2023/09/11 16:25:29;;;;;;;12.82;4.32;;;;;;;30.15;37.03;99744.81;10305170;28;20047;-65
2023/09/11 16:30:31;;;;;;;10.13;4.32;;;;;;;30.10;37.61;99742.06;10306756;28;20068;-66
2023/09/11 16:35:35;;;;;;;14.45;5.15;;;;;;;29.93;37.78;99733.97;10305983;28;20065;-65
2023/09/11 16:40:36;;;;;;;13.32;5.20;;;;;;;29.93;37.86;99747.69;10307958;28;20543;-66
2023/09/11 16:45:38;;;;;;;12.20;4.67;;;;;;;29.87;38.13;99747.94;10304034;28;20278;-64
2023/09/11 16:50:39;;;;;;;11.47;4.80;;;;;;;29.71;38.33;99736.00;10307043;28;20084;-64
2023/09/11 16:55:41;;;;;;;12.23;4.57;;;;;;;29.70;38.50;99746.13;10303789;28;20092;-66
2023/09/11 17:00:42;;;;;;;12.47;4.57;;;;;;;29.69;38.58;99743.66;10305981;28;20665;-65
2023/09/11 17:05:44;;;;;;;7.65;4.05;;;;;;;29.56;38.91;99736.69;10305373;28;20041;-65
2023/09/11 17:10:45;;;;;;;10.23;4.30;;;;;;;29.50;38.82;99729.53;10306278;28;20064;-65
2023/09/11 17:15:47;;;;;;;14.53;4.53;;;;;;;29.49;39.18;99739.66;10304287;28;20344;-66
2023/09/11 17:20:50;;;;;;;13.95;5.95;;;;;;;29.44;39.46;99734.16;10306123;28;21323;-65
2023/09/11 17:25:52;;;;;;;9.30;4.40;;;;;;;29.38;39.55;99737.91;10307325;28;20053;-64
2023/09/11 17:30:53;;;;;;;12.57;6.33;;;;;;;29.32;40.21;99733.47;10295769;28;20098;-66
2023/09/11 17:35:55;;;;;;;11.80;4.87;;;;;;;29.25;40.08;99740.00;10304983;28;20081;-64
2023/09/11 17:40:57;;;;;;;19.25;5.80;;;;;;;29.18;40.58;99731.13;10302370;28;20512;-66
2023/09/11 17:45:59;;;;;;;10.05;4.43;;;;;;;29.12;40.86;99731.34;10300292;28;20107;-66
2023/09/11 17:51:00;;;;;;;12.93;5.13;;;;;;;29.05;41.57;99737.03;10305248;28;20559;-64
2023/09/11 17:56:02;;;;;;;20.80;4.97;;;;;;;28.97;41.55;99732.03;10302372;28;20307;-65
2023/09/11 18:01:04;;;;;;;13.67;5.57;;;;;;;28.84;41.55;99730.50;10305211;28;20046;-66
2023/09/11 18:06:05;;;;;;;12.03;5.43;;;;;;;28.76;42.44;99734.53;10304352;28;20279;-67
2023/09/11 18:11:07;;;;;;;14.97;6.00;;;;;;;28.60;42.96;99735.44;10342524;28;20072;-67
2023/09/11 18:16:08;;;;;;;12.00;5.90;;;;;;;28.56;43.11;99746.88;10344229;28;21345;-66
2023/09/11 18:21:10;;;;;;;19.23;7.80;;;;;;;28.47;43.68;99748.41;10341503;28;20140;-65
2023/09/11 18:26:12;;;;;;;16.63;7.30;;;;;;;28.38;43.94;99744.47;10342437;28;20053;-69
2023/09/11 18:31:13;;;;;;;15.23;6.97;;;;;;;28.30;44.57;99753.09;10343936;28;20065;-68
2023/09/11 18:36:15;;;;;;;12.03;7.63;;;;;;;28.22;45.10;99751.63;10343760;28;20052;-64
2023/09/11 18:41:17;;;;;;;14.85;7.97;;;;;;;28.13;45.29;99758.63;10331510;28;20427;-64
2023/09/11 18:46:18;;;;;;;17.50;9.25;;;;;;;28.04;45.67;99772.75;10344924;28;20295;-65
2023/09/11 18:51:20;;;;;;;15.23;8.70;;;;;;;27.95;46.15;99776.09;10346741;28;20097;-66
2023/09/11 18:56:21;;;;;;;15.50;10.73;;;;;;;27.83;46.25;99774.31;10343092;28;20168;-65
2023/09/11 19:01:23;;;;;;;17.63;10.60;;;;;;;27.75;46.88;99771.97;10341935;28;20046;-64
2023/09/11 19:06:24;;;;;;;16.10;10.50;;;;;;;27.61;46.92;99762.44;10343020;28;20049;-65
2023/09/11 19:11:27;;;;;;;19.13;9.80;;;;;;;27.45;47.09;99764.91;10328721;28;20049;-65
2023/09/11 19:16:29;;;;;;;16.48;9.18;;;;;;;27.50;47.84;99792.34;10301097;28;20337;-64
2023/09/11 19:21:30;;;;;;;16.20;10.15;;;;;;;27.43;47.69;99791.66;10304136;28;20046;-64
2023/09/11 19:26:32;;;;;;;16.77;10.27;;;;;;;27.37;48.41;99779.00;10306900;28;20054;-64
2023/09/11 19:31:34;;;;;;;16.05;9.77;;;;;;;27.31;48.10;99777.22;10304109;28;20054;-65
2023/09/11 19:36:36;;;;;;;15.98;9.80;;;;;;;27.25;48.50;99775.44;10302695;28;20076;-64
2023/09/11 19:41:38;;;;;;;14.57;8.55;;;;;;;27.21;49.11;99774.28;10305998;28;20053;-64
2023/09/11 19:46:39;;;;;;;14.65;8.30;;;;;;;27.14;49.07;99774.44;10301253;28;20050;-64
2023/09/11 19:51:41;;;;;;;16.35;8.40;;;;;;;27.07;49.13;99771.88;10300674;28;20667;-64
2023/09/11 19:56:42;;;;;;;14.57;9.00;;;;;;;27.02;49.48;99771.75;10307630;28;20062;-65
2023/09/11 20:01:44;;;;;;;15.52;8.93;;;;;;;26.79;49.41;99757.13;10310307;28;20069;-66
2023/09/11 20:06:46;;;;;;;18.05;9.23;;;;;;;26.69;49.80;99737.81;10308637;28;20118;-64
2023/09/11 20:11:48;;;;;;;12.65;7.38;;;;;;;26.78;49.68;99755.47;10309438;28;20270;-64
2023/09/11 20:16:49;;;;;;;14.38;7.75;;;;;;;26.66;49.80;99735.53;10309931;28;20414;-65
2023/09/11 20:21:51;;;;;;;14.82;7.00;;;;;;;26.75;50.29;99755.13;10309422;28;20062;-65
2023/09/11 20:26:52;;;;;;;12.35;7.43;;;;;;;26.50;50.04;99714.44;10308526;28;20090;-63
2023/09/11 20:31:54;;;;;;;13.55;7.55;;;;;;;26.61;50.85;99735.44;10308553;28;20096;-65
2023/09/11 20:36:56;;;;;;;13.23;7.05;;;;;;;26.57;50.38;99743.28;10308809;28;21181;-63
2023/09/11 20:41:57;;;;;;;15.88;6.88;;;;;;;26.48;50.86;99746.63;10306607;28;20073;-65
2023/09/11 20:46:59;;;;;;;11.30;5.82;;;;;;;26.21;51.58;99733.50;10303294;28;20057;-64
2023/09/11 20:52:00;;;;;;;10.75;6.45;;;;;;;26.25;52.64;99737.41;10305819;28;20046;-64
2023/09/11 20:57:02;;;;;;;16.52;6.35;;;;;;;26.16;53.83;99736.13;10305447;28;20065;-63
2023/09/11 21:02:03;;;;;;;10.75;6.45;;;;;;;26.05;54.83;99730.44;10306185;28;20578;-63
2023/09/11 21:07:05;;;;;;;14.13;6.47;;;;;;;26.10;54.85;99733.28;10304862;28;20046;-62
2023/09/11 21:12:07;;;;;;;11.88;6.43;;;;;;;25.96;55.78;99740.03;10305535;28;20053;-63
2023/09/11 21:17:08;;;;;;;13.10;6.45;;;;;;;25.94;56.20;99734.81;10303482;28;20707;-61
2023/09/11 21:22:10;;;;;;;9.95;6.22;;;;;;;25.93;56.58;99732.31;10303164;28;20060;-63
2023/09/11 21:27:11;;;;;;;11.55;6.53;;;;;;;25.89;56.83;99733.84;10304269;28;20064;-62
2023/09/11 21:32:13;;;;;;;10.85;6.07;;;;;;;25.84;57.06;99722.84;10300018;28;20081;-63
2023/09/11 21:37:14;;;;;;;12.77;6.88;;;;;;;25.79;57.51;99728.16;10301810;28;21121;-64
2023/09/11 21:42:16;;;;;;;16.60;7.55;;;;;;;25.69;57.45;99720.59;10302686;28;20116;-63
2023/09/11 21:47:18;;;;;;;12.97;7.27;;;;;;;25.59;57.95;99718.44;10299800;28;20054;-63
2023/09/11 21:52:19;;;;;;;11.75;7.05;;;;;;;25.40;58.17;99704.91;10299796;28;20596;-62
2023/09/11 21:57:20;;;;;;;12.85;6.50;;;;;;;25.53;58.57;99728.38;10298168;28;20058;-63
2023/09/11 22:02:22;;;;;;;11.02;6.25;;;;;;;25.49;58.21;99737.25;10298068;28;20093;-63
2023/09/11 22:07:24;;;;;;;10.93;6.72;;;;;;;25.28;59.24;99709.47;10342719;28;20595;-63
2023/09/11 22:12:25;;;;;;;9.18;6.55;;;;;;;25.41;59.69;99732.97;10343258;28;20045;-64
2023/09/11 22:17:27;;;;;;;11.55;7.32;;;;;;;25.40;59.78;99739.47;10342305;28;20543;-63
2023/09/11 22:22:29;;;;;;;13.70;7.10;;;;;;;25.28;59.73;99723.09;10337730;28;20045;-62
2023/09/11 22:27:30;;;;;;;9.52;6.38;;;;;;;25.30;59.77;99723.72;10340305;28;20047;-63
2023/09/11 22:32:32;;;;;;;10.73;6.35;;;;;;;25.23;60.38;99728.41;10305672;28;20054;-63
2023/09/11 22:37:53;;;;;;;10.63;6.95;;;;;;;25.11;60.39;99714.75;10344013;28;20155;-63
2023/09/11 22:42:56;;;;;;;11.00;7.03;;;;;;;25.12;60.89;99721.03;10332735;28;20068;-62
2023/09/11 22:47:57;;;;;;;12.40;6.85;;;;;;;25.06;60.72;99718.16;10346077;28;20057;-63
2023/09/11 22:53:00;;;;;;;11.27;6.72;;;;;;;25.00;61.18;99719.09;10342875;28;20515;-62
2023/09/11 22:58:02;;;;;;;8.27;6.15;;;;;;;24.97;61.62;99730.47;10328193;28;20065;-64
2023/09/11 23:03:05;;;;;;;11.90;6.78;;;;;;;24.93;61.27;99720.25;10329865;28;20372;-63
2023/09/11 23:08:06;;;;;;;15.68;7.90;;;;;;;24.90;61.52;99729.72;10345975;28;20412;-64
2023/09/11 23:13:08;;;;;;;11.60;7.32;;;;;;;24.87;60.96;99736.44;10345639;28;20076;-63
2023/09/11 23:18:09;;;;;;;9.15;7.03;;;;;;;24.78;61.89;99726.94;10346917;28;20053;-62